< Cyclone 196613 1966 Season Cyclone 196615 >
Cyclone 196614 (NELLIE)
General InformationTrack Information on Google Maps || ResourceGoogle EarthGE AnimationAtom FeedGeoJSON
Detalied Best Track (Time Zone = UTC)
Year Month Day Hour Lat. Long. Pressure (hPa) Wind (kt) Class Image Chart
1966 3 21 10 -9.9 97.0 997 0 0 -- --
1966 3 21 16 -10.1 96.0 997 0 0 -- --
1966 3 21 19 -10.4 95.1 997 0 0 -- --
1966 3 21 22 -10.6 94.1 997 0 0 -- --
1966 3 22 01 -10.9 93.1 997 0 0 -- --
1966 3 22 04 -11.3 92.8 997 0 0 -- --
1966 3 22 07 -11.7 92.4 997 0 0 -- --
1966 3 22 10 -12.1 92.0 996 0 0 -- --
1966 3 22 16 -12.8 91.6 996 0 0 -- --
1966 3 22 19 -13.1 90.8 996 0 0 -- --
1966 3 22 22 -13.1 90.5 995 0 0 -- --
1966 3 23 01 -13.7 90.1 995 0 0 -- --
1966 3 23 04 -13.9 90.0 994 0 0 -- --
1966 3 23 07 -14.2 89.9 993 0 0 -- --
1966 3 23 10 -14.5 89.8 992 0 0 -- --
1966 3 23 16 -15.0 89.8 991 0 0 -- --
1966 3 23 19 -15.3 89.8 990 0 0 -- --
1966 3 23 22 -15.6 90.0 989 0 0 -- --
1966 3 24 01 -15.8 90.0 987 0 0 -- --
1966 3 24 04 -16.1 90.1 987 0 0 -- --
1966 3 24 07 -16.4 90.3 988 0 0 -- --
1966 3 24 10 -16.8 90.5 988 0 0 -- --
1966 3 24 16 -17.5 90.6 989 0 0 -- --
1966 3 24 19 -17.9 90.8 989 0 0 -- --
1966 3 24 22 -18.3 91.0 990 0 0 -- --
1966 3 25 01 -18.7 91.1 990 0 0 -- --
1966 3 25 04 -18.9 91.4 990 0 0 -- --
1966 3 25 07 -19.1 91.6 990 0 0 -- --
1966 3 25 10 -19.4 91.8 990 0 0 -- --
1966 3 25 16 -20.0 92.4 990 0 0 -- --
1966 3 25 19 -20.3 92.6 990 0 0 -- --
1966 3 25 22 -20.6 92.8 990 0 0 -- --
1966 3 26 01 -20.9 93.0 990 0 0 -- --
1966 3 26 04 -21.4 93.7 991 0 0 -- --
1966 3 26 07 -21.9 94.5 992 0 0 -- --
1966 3 26 10 -22.4 95.2 993 0 0 -- --
1966 3 26 16 -23.4 96.7 994 0 0 -- --
1966 3 26 19 -23.9 97.5 995 0 0 -- --
1966 3 26 22 -24.4 98.2 996 0 0 -- --
1966 3 27 01 -24.9 99.0 997 0 0 -- --
1966 3 27 07 -25.9 99.5 1001 0 0 -- --
1966 3 27 10 -26.4 99.7 1002 0 0 -- --
1966 3 27 16 -27.4 100.2 1004 0 0 -- --
1966 3 27 19 -27.9 100.5 1005 0 0 -- --
1966 3 27 22 -28.4 100.7 1006 0 0 -- --
1966 3 28 01 -28.9 101.0 1007 0 0 -- --
< Cyclone 196613 1966 Season Cyclone 196615 >

Help